YMER

Details ICAO YMER (MIM)
Name Merimbula
Region Australia
Timezone Australia/Sydney (UTC+11.0)
Plans Departing 17
Arriving 25
Stats Elevation 6 ft / 2 m (AMSL)
Location -36.906875° 149.901626°
Runways 1
Magnetic Variation 13.324° E
Sunrise 2017-12-10 18:35:51 UTC / 2017-12-11 05:35:51 Local
Sunset 2017-12-11 09:13:59 UTC / 2017-12-11 20:13:59 Local
Advertisement - Login to hide

Runways

ID Width Length Bearing (true) Bearing (mag) Surface Threshold Offset Overrun Length
03 98 ft / 30 m 5,252 ft / 1,601 m 33.80° 20.48° Asphalt 0 ft / 0 m 0 ft / 0 m
21 98 ft / 30 m 5,252 ft / 1,601 m 213.80° 200.48° Asphalt 0 ft / 0 m 0 ft / 0 m

Map

Weather


0- 5 10 15 20 25 30 35+ Temperature / ° C

Clouds and Precipitation
Forecast for 2017-12-11 06:00 UTC. Updated 41 minutes ago

Ground ~20,000 ft ~40,000 ft Winds

METAR

YMER 110500Z AUTO 13008KT 9999 // OVC020 19/15 Q1019

TAF

Not found

Frequencies

Unicom 119.60 MHz ACTIVATE LIGHTS ONLY MULT
Unicom 126.70 MHz MERIMBULA MULT
Unicom 118.80 MHz MELBOURNE CENTRE MULT
Warning: Do not use this data for real-world aviation or navigation. No guarantee of current accuracy is given.